x

Long Island - 30 Nm South Of Islip, Ny (44025) Wave Buoy

11:50pm - Sun 25th Jun 2017 All times are EDT. -4 hours from GMT.

  • Sig Wave height 3.0ft
  • Swell Direction
  • Peak Period 8s
  • Average Period 4s
  • Wind
    13mph, 16mph gusts
  • Sea Temp 69°f
  • Air Temp 71°f
  • Sea Pressure 1013.8mb
  • Long Island - 30 Nm South Of Islip, Ny
  • Long Island - 30 Nm South Of Islip, Ny

More Historic Weather Station data

Upgrade to MSW Pro to gain access to the past 30 days of data for over 8000 Wavebouys and Weather Stations around the globe.

Join Pro

Comparision Forecast

View Surf forecast
   
Sun 06/25 11:50pm 3ft 8s 4s 13 16 mph 1013.8mb 69f 71f
10:50pm 3ft 7s 4s 18 22 mph 1013.7mb 70f 72f
9:50pm 3.5ft 7s 4s 16 18 mph 1013.5mb 70f 71f
8:50pm 3.5ft 8s 4s 16 20 mph 1013.4mb 70f 71f
7:50pm 3.5ft 7s 4s 16 18 mph 1013.2mb 70f 71f
6:50pm 3ft 8s 5s 16 18 mph 1013mb 71f 71f
5:50pm 3ft 8s 5s 13 16 mph 1012.8mb 71f 72f
4:50pm 2.5ft 8s 5s 11 13 mph 1013.2mb 72f 72f
3:50pm 2.5ft 8s 6s 11 13 mph 1013.5mb 71f 72f
2:50pm 3ft 8s 6s 9 11 mph 1014.3mb 71f 73f
1:50pm 3ft 8s 6s 9 11 mph 1014.7mb 73f 73f
12:50pm 3.5ft 7s 6s 4 7 mph 1015.2mb 73f 73f
11:50am 3.5ft 8s 6s  -  2 mph 1015.4mb 72f 71f
10:50am 3.5ft 8s 6s 2 4 mph 1015.3mb 71f 71f
9:50am 3.5ft 8s 6s  -  2 mph 1015.1mb 70f 70f
8:50am 3.5ft 7s 6s 4 4 mph 1015.1mb 69f 69f
7:50am 4ft 8s 6s 7 7 mph 1014.9mb 68f 69f
6:50am 4.5ft 8s 6s 7 7 mph 1014.2mb 68f 69f
5:50am 4ft 8s 6s 4 7 mph 1013.8mb 68f 69f
4:50am 4ft 8s 6s 7 9 mph 1013.1mb 68f 70f
3:50am 4.5ft 8s 6s 7 7 mph 1012.5mb 67f 69f
2:50am 4.5ft 8s 6s 11 13 mph 1012.6mb 67f 70f
1:50am 4.5ft 8s 6s 11 13 mph 1012.2mb 68f 70f
12:50am 4.5ft 8s 6s 11 13 mph 1012.3mb 69f 71f
Sat 06/24 11:50pm 5ft 8s 6s 11 13 mph 1012.2mb 69f 71f
10:50pm 5.5ft 9s 6s 9 9 mph 1011.8mb 69f 70f
9:50pm 5.5ft 8s 6s 11 11 mph 1011.2mb 69f 72f
8:50pm 6ft 8s 6s 9 11 mph 1010.2mb 69f 73f
7:50pm 5.5ft 9s 6s 7 7 mph 1009.9mb 69f 72f
6:50pm 6ft 8s 6s 9 11 mph 1009.1mb 69f 73f
5:50pm 6ft 8s 6s 9 11 mph 1008.5mb 69f 73f
4:50pm 7ft 8s 7s 13 16 mph 1008.1mb 68f 73f
3:50pm 7ft 8s 7s 18 20 mph 1007.2mb 67f 74f
2:50pm 7.5ft 9s 7s 18 20 mph 1006.5mb 67f 73f
1:50pm 7ft 8s 6s 16 18 mph 1006.1mb 67f 72f
12:50pm 7.5ft 9s 7s 16 18 mph 1005.4mb 67f 70f
11:50am 7ft 8s 6s 16 18 mph 1004.4mb 67f 69f
10:50am 8ft 8s 6s 13 16 mph 1003.5mb 67f 68f
9:50am 9ft 8s 6s 18 22 mph 1002mb 68f 68f
8:50am 8ft 8s 6s 36 45 mph 1000.1mb 68f 71f
7:50am 7.5ft 8s 5s 25 29 mph 1000.1mb 68f 71f
6:50am 7ft 7s 5s 22 27 mph 1001mb 68f 71f
5:50am 6.5ft 7s 5s 22 29 mph 1001.9mb 68f 71f
4:50am 6.5ft 7s 5s 22 25 mph 1002.1mb 68f 71f
3:50am 7ft 7s 5s 25 27 mph 1002.3mb 68f 71f
2:50am 6ft 7s 5s 22 27 mph 1002.9mb 68f 71f
1:50am 6ft 7s 5s 25 27 mph 1003mb 68f 72f
12:50am 6ft 7s 5s 22 27 mph 1003.3mb 68f 72f
Fri 06/23 11:50pm 6ft 6s 5s 20 25 mph 1003.7mb 68f 71f
10:50pm 6ft 6s 5s 25 27 mph 1004.4mb 68f 72f
9:50pm 6ft 6s 5s 22 27 mph 1004.5mb 68f 71f
8:50pm 6ft 6s 5s 22 27 mph 1003.8mb 68f 71f
7:50pm 6ft 6s 5s 22 29 mph 1004.1mb 69f 71f
6:50pm 6ft 6s 5s 22 25 mph 1004.2mb 69f 71f
5:50pm 6ft 6s 5s 22 29 mph 1004.6mb 69f 71f
4:50pm 5ft 6s 5s 25 29 mph 1004.9mb 69f 71f
3:50pm 4.5ft 6s 5s 22 29 mph 1005.7mb 69f 71f
2:50pm 4.5ft 5s 4s 22 27 mph 1006.3mb 69f 71f
1:50pm 4ft 5s 4s 20 25 mph 1007mb 69f 71f
12:50pm 3.5ft 4s 4s 20 25 mph 1007.8mb 69f 71f
11:50am 3.5ft 4s 4s 20 22 mph 1008.5mb 69f 71f
10:50am 2.5ft 8s 4s 18 22 mph 1009mb 69f 71f
8:50am 2.5ft 9s 4s 13 16 mph 1009.9mb 69f 70f
7:50am 2.5ft 3s 4s 11 13 mph 1010.3mb 69f 70f
6:50am 2.5ft 9s 4s 11 13 mph 1010.2mb 69f 71f
5:50am 2.5ft 5s 4s 13 16 mph 1010mb 69f 70f
4:50am 2.5ft 5s 4s 13 16 mph 1010.1mb 69f 71f
3:50am 2.5ft 5s 4s 13 16 mph 1010.5mb 69f 71f
2:50am 2.5ft 6s 4s 13 13 mph 1010.9mb 69f 70f
1:50am 2.5ft 6s 4s 11 13 mph 1011.7mb 68f 70f
12:50am 2.5ft 5s 4s 13 16 mph 1012.4mb 68f 70f
Thu 06/22 11:50pm 2.5ft 6s 4s 13 16 mph 1013mb 68f 70f
10:50pm 2.5ft 5s 4s 13 16 mph 1012.9mb 68f 70f
9:50pm 2.5ft 6s 4s 16 18 mph 1013mb 68f 70f
8:50pm 2ft 6s 4s 13 16 mph 1012.9mb 69f 70f
7:50pm 2ft 6s 5s 11 13 mph 1013mb 69f 70f
6:50pm 2ft 5s 5s 13 13 mph 1012.5mb 69f 70f
5:50pm 2ft 5s 5s 9 11 mph 1013.2mb 69f 69f
4:50pm 2ft 5s 5s 9 11 mph 1013.5mb 69f 69f
3:50pm 2ft 5s 5s 11 11 mph 1014.3mb 69f 69f
2:50pm 2ft 6s 5s 11 11 mph 1014.9mb 69f 70f
1:50pm 2.5ft 5s 5s 9 9 mph 1015.3mb 69f 70f
12:50pm 2.5ft 6s 5s 7 9 mph 1015.5mb 69f 70f
11:50am 2.5ft 6s 5s 9 9 mph 1015.7mb 69f 69f
10:50am 2.5ft 6s 5s 7 9 mph 1015.7mb 69f 69f
9:50am 3ft 6s 5s 7 7 mph 1015.9mb 68f 69f
8:50am 3ft 6s 5s 7 7 mph 1016.5mb 68f 69f
7:50am 3.5ft 6s 5s 4 7 mph 1016.1mb 67f 69f
6:50am 3ft 6s 5s 4 4 mph 1015.8mb 67f 67f
5:50am 3.5ft 6s 5s 4 7 mph 1015.1mb 67f 67f